Time,TemperatureF,DewpointF,PressureIn,WindDirection,WindDirectionDegrees,WindSpeedMPH,WindSpeedGustMPH,Humidity,HourlyPrecipIn,Conditions,Clouds,dailyrainin,SoftwareType,DateUTC
2013-04-13 00:05:00,45.4,42.6,30.05,NW,309,9.0,14.0,90,0.00,,,0.00,Wunderground v.1.15,2013-04-13 07:05:00,
2013-04-13 00:10:00,45.5,42.4,30.06,NW,319,10.0,12.0,89,0.00,,,0.00,Wunderground v.1.15,2013-04-13 07:10:00,
2013-04-13 00:15:00,45.6,42.3,30.06,NNW,327,12.0,15.0,88,0.00,,,0.00,Wunderground v.1.15,2013-04-13 07:15:00,
2013-04-13 00:21:00,45.6,42.3,30.06,NNW,348,12.0,12.0,88,0.00,,,0.00,Wunderground v.1.15,2013-04-13 07:21:00,
2013-04-13 00:27:00,45.7,42.1,30.06,NNW,336,10.0,13.0,87,0.00,,,0.00,Wunderground v.1.15,2013-04-13 07:27:00,
2013-04-13 00:33:00,45.5,41.6,30.06,NW,320,9.0,9.0,86,0.00,,,0.00,Wunderground v.1.15,2013-04-13 07:33:00,
2013-04-13 00:38:00,45.6,41.7,30.06,NNW,332,9.0,11.0,86,0.00,,,0.00,Wunderground v.1.15,2013-04-13 07:38:00,
2013-04-13 00:43:00,45.6,41.4,30.06,NNW,343,10.0,14.0,85,0.00,,,0.00,Wunderground v.1.15,2013-04-13 07:43:00,
2013-04-13 00:48:00,45.5,40.9,30.07,NNW,330,9.0,14.0,84,0.00,,,0.00,Wunderground v.1.15,2013-04-13 07:48:00,
2013-04-13 00:54:00,45.6,41.0,30.06,North,350,8.0,10.0,84,0.00,,,0.00,Wunderground v.1.15,2013-04-13 07:54:00,
2013-04-13 01:02:00,45.8,41.2,30.07,NW,319,7.0,19.0,84,0.00,,,0.00,Wunderground v.1.15,2013-04-13 08:02:00,
2013-04-13 01:07:00,45.8,41.2,30.07,NW,319,8.0,19.0,84,0.00,,,0.00,Wunderground v.1.15,2013-04-13 08:07:00,
2013-04-13 01:13:00,45.9,41.6,30.07,NNW,336,8.0,19.0,85,0.00,,,0.00,Wunderground v.1.15,2013-04-13 08:13:00,
2013-04-13 01:22:00,45.8,41.2,30.07,NW,321,10.0,19.0,84,0.00,,,0.00,Wunderground v.1.15,2013-04-13 08:22:00,
2013-04-13 01:27:00,45.7,41.1,30.07,NNW,337,10.0,19.0,84,0.00,,,0.00,Wunderground v.1.15,2013-04-13 08:27:00,
2013-04-13 01:33:00,45.6,41.0,30.07,NNW,335,10.0,19.0,84,0.00,,,0.00,Wunderground v.1.15,2013-04-13 08:33:00,
2013-04-13 01:38:00,45.6,41.0,30.07,NW,317,10.0,19.0,84,0.00,,,0.00,Wunderground v.1.15,2013-04-13 08:38:00,
2013-04-13 01:45:00,45.4,40.2,30.07,NW,325,9.0,19.0,82,0.00,,,0.00,Wunderground v.1.15,2013-04-13 08:45:00,
2013-04-13 01:53:00,45.3,39.5,30.07,NNW,339,8.0,19.0,80,0.00,,,0.00,Wunderground v.1.15,2013-04-13 08:53:00,
2013-04-13 01:58:00,45.5,39.7,30.07,NW,322,8.0,19.0,80,0.00,,,0.00,Wunderground v.1.15,2013-04-13 08:58:00,
2013-04-13 02:03:00,45.5,39.7,30.07,North,5,7.0,19.0,80,0.00,,,0.00,Wunderground v.1.15,2013-04-13 09:03:00,
2013-04-13 02:09:00,45.5,40.0,30.07,North,355,8.0,19.0,81,0.00,,,0.00,Wunderground v.1.15,2013-04-13 09:09:00,
2013-04-13 02:15:00,45.5,39.7,30.07,NNW,340,9.0,19.0,80,0.00,,,0.00,Wunderground v.1.15,2013-04-13 09:15:00,
2013-04-13 02:20:00,45.5,39.7,30.07,North,360,8.0,19.0,80,0.00,,,0.00,Wunderground v.1.15,2013-04-13 09:20:00,
2013-04-13 02:26:00,45.7,40.2,30.08,North,360,8.0,19.0,81,0.00,,,0.00,Wunderground v.1.15,2013-04-13 09:26:00,
2013-04-13 02:32:00,45.5,39.7,30.07,North,360,9.0,19.0,80,0.00,,,0.00,Wunderground v.1.15,2013-04-13 09:32:00,
2013-04-13 02:37:00,45.4,39.3,30.08,NNW,344,8.0,19.0,79,0.00,,,0.00,Wunderground v.1.15,2013-04-13 09:37:00,
2013-04-13 02:43:00,45.4,38.9,30.08,NNW,332,9.0,19.0,78,0.00,,,0.00,Wunderground v.1.15,2013-04-13 09:43:00,
2013-04-13 02:48:00,45.5,39.4,30.08,NNW,335,10.0,19.0,79,0.00,,,0.00,Wunderground v.1.15,2013-04-13 09:48:00,
2013-04-13 02:54:00,45.5,39.0,30.08,NW,312,10.0,19.0,78,0.00,,,0.00,Wunderground v.1.15,2013-04-13 09:54:00,
2013-04-13 02:59:00,45.6,39.5,30.08,North,355,8.0,8.0,79,0.00,,,0.00,Wunderground v.1.15,2013-04-13 09:59:00,
2013-04-13 03:05:00,45.5,39.4,30.08,NNW,330,8.0,19.0,79,0.00,,,0.00,Wunderground v.1.15,2013-04-13 10:05:00,
2013-04-13 03:10:00,45.4,38.6,30.08,NNW,342,8.0,19.0,77,0.00,,,0.00,Wunderground v.1.15,2013-04-13 10:10:00,
2013-04-13 03:16:00,45.5,38.7,30.08,NNW,334,7.0,19.0,77,0.00,,,0.00,Wunderground v.1.15,2013-04-13 10:16:00,
2013-04-13 03:23:00,45.5,38.7,30.08,NNW,332,5.0,19.0,77,0.00,,,0.00,Wunderground v.1.15,2013-04-13 10:23:00,
2013-04-13 03:28:00,45.5,39.0,30.08,NNW,339,4.0,19.0,78,0.00,,,0.00,Wunderground v.1.15,2013-04-13 10:28:00,
2013-04-13 03:33:00,45.4,38.6,30.08,NNW,338,4.0,19.0,77,0.00,,,0.00,Wunderground v.1.15,2013-04-13 10:33:00,
2013-04-13 03:39:00,45.5,39.0,30.08,NW,322,5.0,19.0,78,0.00,,,0.00,Wunderground v.1.15,2013-04-13 10:39:00,
2013-04-13 03:46:00,45.5,39.7,30.09,NNW,334,6.0,19.0,80,0.00,,,0.00,Wunderground v.1.15,2013-04-13 10:46:00,
2013-04-13 03:51:00,45.4,39.6,30.09,North,351,7.0,19.0,80,0.00,,,0.00,Wunderground v.1.15,2013-04-13 10:51:00,
2013-04-13 03:56:00,45.5,39.7,30.08,North,355,8.0,19.0,80,0.00,,,0.00,Wunderground v.1.15,2013-04-13 10:56:00,
2013-04-13 04:03:00,45.5,39.7,30.08,NNW,346,7.0,19.0,80,0.00,,,0.00,Wunderground v.1.15,2013-04-13 11:03:00,
2013-04-13 04:08:00,45.6,39.8,30.09,NNW,340,7.0,19.0,80,0.00,,,0.00,Wunderground v.1.15,2013-04-13 11:08:00,
2013-04-13 04:13:00,45.6,39.5,30.09,NNW,339,7.0,19.0,79,0.00,,,0.00,Wunderground v.1.15,2013-04-13 11:13:00,
2013-04-13 04:19:00,45.7,39.6,30.08,NNW,328,7.0,7.0,79,0.00,,,0.00,Wunderground v.1.15,2013-04-13 11:19:00,
2013-04-13 04:24:00,45.5,38.7,30.08,NNW,333,7.0,19.0,77,0.00,,,0.00,Wunderground v.1.15,2013-04-13 11:24:00,
2013-04-13 04:30:00,45.6,38.5,30.09,NNW,348,7.0,19.0,76,0.00,,,0.00,Wunderground v.1.15,2013-04-13 11:30:00,
2013-04-13 04:35:00,45.7,38.9,30.09,NNW,346,6.0,19.0,77,0.00,,,0.00,Wunderground v.1.15,2013-04-13 11:35:00,
2013-04-13 04:41:00,45.7,38.9,30.08,NNW,343,5.0,19.0,77,0.00,,,0.00,Wunderground v.1.15,2013-04-13 11:41:00,
2013-04-13 04:47:00,45.5,38.4,30.08,NNW,342,4.0,19.0,76,0.00,,,0.00,Wunderground v.1.15,2013-04-13 11:47:00,
2013-04-13 04:53:00,45.5,38.4,30.08,NNW,343,4.0,19.0,76,0.00,,,0.00,Wunderground v.1.15,2013-04-13 11:53:00,
2013-04-13 04:58:00,45.6,38.8,30.09,NNW,348,3.0,19.0,77,0.00,,,0.00,Wunderground v.1.15,2013-04-13 11:58:00,
2013-04-13 05:04:00,45.7,38.9,30.09,NNW,348,5.0,19.0,77,0.00,,,0.00,Wunderground v.1.15,2013-04-13 12:04:00,
2013-04-13 05:09:00,45.8,39.0,30.09,NNW,347,5.0,19.0,77,0.00,,,0.00,Wunderground v.1.15,2013-04-13 12:09:00,
2013-04-13 05:14:00,45.7,38.6,30.09,NW,323,5.0,19.0,76,0.00,,,0.00,Wunderground v.1.15,2013-04-13 12:14:00,
2013-04-13 05:20:00,45.8,38.7,30.09,NNW,347,7.0,19.0,76,0.00,,,0.00,Wunderground v.1.15,2013-04-13 12:20:00,
2013-04-13 05:27:00,45.7,38.2,30.09,NNW,348,8.0,19.0,75,0.00,,,0.00,Wunderground v.1.15,2013-04-13 12:27:00,
2013-04-13 05:33:00,45.6,38.8,30.09,NW,319,7.0,19.0,77,0.00,,,0.00,Wunderground v.1.15,2013-04-13 12:33:00,
2013-04-13 05:39:00,45.3,38.2,30.09,NNW,331,8.0,19.0,76,0.00,,,0.00,Wunderground v.1.15,2013-04-13 12:39:00,
2013-04-13 05:44:00,45.3,39.5,30.09,NW,323,8.0,19.0,80,0.00,,,0.00,Wunderground v.1.15,2013-04-13 12:44:00,
2013-04-13 05:49:00,45.0,39.2,30.09,NNW,328,10.0,10.0,80,0.00,,,0.00,Wunderground v.1.15,2013-04-13 12:49:00,
2013-04-13 05:55:00,44.9,39.1,30.09,NNW,332,11.0,19.0,80,0.00,,,0.00,Wunderground v.1.15,2013-04-13 12:55:00,
2013-04-13 06:00:00,44.8,39.6,30.09,NNW,327,10.0,19.0,82,0.00,,,0.00,Wunderground v.1.15,2013-04-13 13:00:00,
2013-04-13 06:06:00,44.7,39.9,30.09,NNW,331,10.0,19.0,83,0.00,,,0.00,Wunderground v.1.15,2013-04-13 13:06:00,
2013-04-13 06:11:00,44.2,39.7,30.09,NW,313,11.0,19.0,84,0.00,,,0.00,Wunderground v.1.15,2013-04-13 13:11:00,
2013-04-13 06:17:00,43.7,39.2,30.09,NW,320,12.0,19.0,84,0.00,,,0.00,Wunderground v.1.15,2013-04-13 13:17:00,
2013-04-13 06:23:00,43.2,39.0,30.10,NW,322,9.0,19.0,85,0.00,,,0.00,Wunderground v.1.15,2013-04-13 13:23:00,
2013-04-13 06:29:00,43.2,39.0,30.10,North,355,4.0,19.0,85,0.00,,,0.00,Wunderground v.1.15,2013-04-13 13:29:00,
2013-04-13 06:34:00,43.3,39.1,30.09,North,350,4.0,19.0,85,0.00,,,0.00,Wunderground v.1.15,2013-04-13 13:34:00,
2013-04-13 06:39:00,43.4,39.5,30.10,NW,325,4.0,19.0,86,0.00,,,0.00,Wunderground v.1.15,2013-04-13 13:39:00,
2013-04-13 06:45:00,43.5,39.6,30.10,NW,309,5.0,19.0,86,0.00,,,0.00,Wunderground v.1.15,2013-04-13 13:45:00,
2013-04-13 06:52:00,43.5,39.3,30.10,NNW,327,7.0,19.0,85,0.00,,,0.00,Wunderground v.1.15,2013-04-13 13:52:00,
2013-04-13 06:57:00,43.6,39.7,30.10,NW,312,9.0,19.0,86,0.00,,,0.00,Wunderground v.1.15,2013-04-13 13:57:00,
2013-04-13 07:03:00,43.1,39.5,30.11,NNW,343,9.0,19.0,87,0.00,,,0.00,Wunderground v.1.15,2013-04-13 14:03:00,
2013-04-13 07:09:00,42.8,39.8,30.11,North,351,10.0,19.0,89,0.00,,,0.01,Wunderground v.1.15,2013-04-13 14:09:00,
2013-04-13 07:14:00,42.3,39.3,30.11,NNW,327,11.0,19.0,89,0.08,,,0.02,Wunderground v.1.15,2013-04-13 14:14:00,
2013-04-13 07:20:00,42.2,38.9,30.11,NNW,348,9.0,19.0,88,0.08,,,0.02,Wunderground v.1.15,2013-04-13 14:20:00,
2013-04-13 07:26:00,42.4,38.8,30.11,NNW,348,10.0,19.0,87,0.05,,,0.02,Wunderground v.1.15,2013-04-13 14:26:00,
2013-04-13 07:31:00,42.7,38.8,30.11,NNW,338,10.0,19.0,86,0.00,,,0.02,Wunderground v.1.15,2013-04-13 14:31:00,
2013-04-13 07:38:00,43.0,38.8,30.11,NNW,335,7.0,19.0,85,0.00,,,0.02,Wunderground v.1.15,2013-04-13 14:38:00,
2013-04-13 07:44:00,43.4,38.9,30.11,North,360,7.0,19.0,84,0.00,,,0.02,Wunderground v.1.15,2013-04-13 14:44:00,
2013-04-13 07:50:00,43.6,39.7,30.12,North,5,5.0,19.0,86,0.00,,,0.02,Wunderground v.1.15,2013-04-13 14:50:00,
2013-04-13 07:55:00,43.3,39.7,30.12,NNW,346,4.0,19.0,87,0.00,,,0.02,Wunderground v.1.15,2013-04-13 14:55:00,
2013-04-13 08:04:00,43.2,39.9,30.12,NNE,17,4.0,19.0,88,0.00,,,0.02,Wunderground v.1.15,2013-04-13 15:04:00,
2013-04-13 08:11:00,43.2,39.9,30.13,NNE,19,3.0,19.0,88,0.00,,,0.02,Wunderground v.1.15,2013-04-13 15:11:00,
2013-04-13 08:17:00,43.1,40.1,30.13,NNE,32,3.0,19.0,89,0.00,,,0.02,Wunderground v.1.15,2013-04-13 15:17:00,
2013-04-13 08:23:00,43.2,40.2,30.13,NW,313,2.0,19.0,89,0.00,,,0.02,Wunderground v.1.15,2013-04-13 15:23:00,
2013-04-13 08:28:00,43.1,39.8,30.13,NW,315,6.0,19.0,88,0.00,,,0.02,Wunderground v.1.15,2013-04-13 15:28:00,
2013-04-13 08:34:00,43.4,39.8,30.13,NW,317,12.0,19.0,87,0.00,,,0.02,Wunderground v.1.15,2013-04-13 15:34:00,
2013-04-13 08:39:00,43.2,39.3,30.13,WNW,302,11.0,11.0,86,0.00,,,0.02,Wunderground v.1.15,2013-04-13 15:39:00,
2013-04-13 08:45:00,43.0,38.8,30.13,NW,323,9.0,19.0,85,0.00,,,0.02,Wunderground v.1.15,2013-04-13 15:45:00,
2013-04-13 08:50:00,43.3,38.8,30.13,NW,315,7.0,19.0,84,0.00,,,0.02,Wunderground v.1.15,2013-04-13 15:50:00,
2013-04-13 08:57:00,43.8,39.0,30.13,NW,315,5.0,19.0,83,0.00,,,0.02,Wunderground v.1.15,2013-04-13 15:57:00,
2013-04-13 09:02:00,43.9,38.8,30.13,NW,315,4.0,19.0,82,0.00,,,0.02,Wunderground v.1.15,2013-04-13 16:02:00,
2013-04-13 09:08:00,44.3,39.2,30.13,NW,315,3.0,19.0,82,0.00,,,0.02,Wunderground v.1.15,2013-04-13 16:08:00,
2013-04-13 09:13:00,44.5,39.3,30.13,NW,315,2.0,19.0,82,0.00,,,0.02,Wunderground v.1.15,2013-04-13 16:13:00,
2013-04-13 09:19:00,45.0,39.5,30.13,NW,321,4.0,19.0,81,0.00,,,0.02,Wunderground v.1.15,2013-04-13 16:19:00,
2013-04-13 09:24:00,45.0,39.5,30.13,NW,323,6.0,19.0,81,0.00,,,0.02,Wunderground v.1.15,2013-04-13 16:24:00,
2013-04-13 09:29:00,45.0,39.5,30.13,NW,325,7.0,7.0,81,0.00,,,0.02,Wunderground v.1.15,2013-04-13 16:29:00,
2013-04-13 09:34:00,45.2,40.0,30.13,NNW,330,6.0,19.0,82,0.00,,,0.02,Wunderground v.1.15,2013-04-13 16:34:00,
2013-04-13 09:40:00,45.2,40.0,30.13,NW,313,6.0,19.0,82,0.00,,,0.02,Wunderground v.1.15,2013-04-13 16:40:00,
2013-04-13 09:45:00,45.3,40.1,30.12,NNW,341,6.0,19.0,82,0.00,,,0.02,Wunderground v.1.15,2013-04-13 16:45:00,
2013-04-13 09:51:00,45.5,40.3,30.13,NNW,348,7.0,19.0,82,0.00,,,0.02,Wunderground v.1.15,2013-04-13 16:51:00,
2013-04-13 09:58:00,45.3,40.1,30.13,North,360,9.0,19.0,82,0.00,,,0.02,Wunderground v.1.15,2013-04-13 16:58:00,
2013-04-13 10:04:00,45.2,40.0,30.13,NNW,335,9.0,19.0,82,0.00,,,0.02,Wunderground v.1.15,2013-04-13 17:04:00,
2013-04-13 10:10:00,45.4,39.9,30.13,NNW,332,8.0,19.0,81,0.00,,,0.02,Wunderground v.1.15,2013-04-13 17:10:00,
2013-04-13 10:16:00,45.4,39.6,30.14,North,350,7.0,19.0,80,0.00,,,0.02,Wunderground v.1.15,2013-04-13 17:16:00,
2013-04-13 10:22:00,45.6,39.5,30.13,North,355,7.0,19.0,79,0.00,,,0.02,Wunderground v.1.15,2013-04-13 17:22:00,
2013-04-13 10:28:00,45.8,39.3,30.13,NNW,348,6.0,19.0,78,0.00,,,0.02,Wunderground v.1.15,2013-04-13 17:28:00,
2013-04-13 10:34:00,45.9,39.4,30.13,NNW,346,6.0,19.0,78,0.00,,,0.02,Wunderground v.1.15,2013-04-13 17:34:00,
2013-04-13 10:39:00,46.1,39.3,30.13,NNW,342,6.0,6.0,77,0.00,,,0.02,Wunderground v.1.15,2013-04-13 17:39:00,
2013-04-13 10:45:00,46.1,39.3,30.13,NNW,339,6.0,19.0,77,0.00,,,0.02,Wunderground v.1.15,2013-04-13 17:45:00,
2013-04-13 10:52:00,46.4,39.6,30.13,NW,325,6.0,19.0,77,0.00,,,0.02,Wunderground v.1.15,2013-04-13 17:52:00,
2013-04-13 10:57:00,46.3,38.8,30.14,NNW,342,8.0,19.0,75,0.00,,,0.02,Wunderground v.1.15,2013-04-13 17:57:00,
2013-04-13 11:02:00,46.4,39.2,30.14,NW,309,8.0,19.0,76,0.00,,,0.02,Wunderground v.1.15,2013-04-13 18:02:00,
2013-04-13 11:08:00,46.6,39.8,30.14,NW,321,8.0,19.0,77,0.00,,,0.02,Wunderground v.1.15,2013-04-13 18:08:00,
2013-04-13 11:13:00,46.6,39.4,30.14,NW,321,8.0,19.0,76,0.00,,,0.02,Wunderground v.1.15,2013-04-13 18:13:00,
2013-04-13 11:19:00,46.8,40.0,30.15,NW,315,8.0,19.0,77,0.00,,,0.02,Wunderground v.1.15,2013-04-13 18:19:00,
2013-04-13 11:25:00,47.3,40.5,30.15,NNW,330,6.0,19.0,77,0.00,,,0.02,Wunderground v.1.15,2013-04-13 18:25:00,
2013-04-13 11:27:00,47.2,40.4,30.14,NNW,341,5.0,19.0,77,0.00,,,0.02,Wunderground v.1.15,2013-04-13 18:27:00,
2013-04-13 11:28:00,47.2,40.4,30.15,NW,326,5.0,19.0,77,0.00,,,0.02,Wunderground v.1.15,2013-04-13 18:28:00,
2013-04-13 11:29:00,47.2,40.4,30.15,NNW,329,5.0,19.0,77,0.00,,,0.02,Wunderground v.1.15,2013-04-13 18:29:00,
2013-04-13 11:33:00,46.8,40.3,30.14,NW,323,5.0,19.0,78,0.00,,,0.02,Wunderground v.1.15,2013-04-13 18:33:00,
2013-04-13 11:38:00,46.0,40.2,30.15,NNW,340,8.0,19.0,80,0.00,,,0.02,Wunderground v.1.15,2013-04-13 18:38:00,
2013-04-13 11:43:00,45.6,40.4,30.15,NW,321,9.0,19.0,82,0.00,,,0.02,Wunderground v.1.15,2013-04-13 18:43:00,
2013-04-13 11:48:00,45.3,40.1,30.15,NNW,327,8.0,19.0,82,0.00,,,0.02,Wunderground v.1.15,2013-04-13 18:48:00,
2013-04-13 11:53:00,45.2,40.0,30.15,North,355,7.0,19.0,82,0.00,,,0.02,Wunderground v.1.15,2013-04-13 18:53:00,
2013-04-13 11:59:00,45.4,40.2,30.15,NNW,348,7.0,7.0,82,0.00,,,0.02,Wunderground v.1.15,2013-04-13 18:59:00,
2013-04-13 12:05:00,46.1,40.9,30.15,NNW,342,7.0,19.0,82,0.00,,,0.02,Wunderground v.1.15,2013-04-13 19:05:00,
2013-04-13 12:10:00,45.9,40.4,30.15,North,351,7.0,19.0,81,0.00,,,0.02,Wunderground v.1.15,2013-04-13 19:10:00,
2013-04-13 12:16:00,45.7,40.5,30.15,North,355,8.0,19.0,82,0.00,,,0.02,Wunderground v.1.15,2013-04-13 19:16:00,
2013-04-13 12:21:00,45.7,40.2,30.15,North,5,8.0,19.0,81,0.00,,,0.02,Wunderground v.1.15,2013-04-13 19:21:00,
2013-04-13 12:28:00,45.6,40.1,30.15,North,350,8.0,19.0,81,0.00,,,0.02,Wunderground v.1.15,2013-04-13 19:28:00,
2013-04-13 12:33:00,45.6,39.8,30.15,NNW,347,7.0,19.0,80,0.00,,,0.02,Wunderground v.1.15,2013-04-13 19:33:00,
2013-04-13 12:38:00,46.2,40.4,30.15,NW,321,6.0,19.0,80,0.00,,,0.02,Wunderground v.1.15,2013-04-13 19:38:00,
2013-04-13 12:44:00,46.6,40.8,30.15,NW,323,5.0,19.0,80,0.00,,,0.02,Wunderground v.1.15,2013-04-13 19:44:00,
2013-04-13 12:50:00,45.9,40.1,30.15,NNW,336,6.0,19.0,80,0.00,,,0.02,Wunderground v.1.15,2013-04-13 19:50:00,
2013-04-13 12:56:00,46.0,40.5,30.16,NW,316,8.0,19.0,81,0.00,,,0.02,Wunderground v.1.15,2013-04-13 19:56:00,
2013-04-13 13:01:00,46.1,40.6,30.16,NW,312,9.0,19.0,81,0.00,,,0.02,Wunderground v.1.15,2013-04-13 20:01:00,
2013-04-13 13:07:00,46.3,40.8,30.16,NNW,341,8.0,19.0,81,0.00,,,0.02,Wunderground v.1.15,2013-04-13 20:07:00,
2013-04-13 13:12:00,46.6,40.8,30.16,NW,321,7.0,19.0,80,0.00,,,0.02,Wunderground v.1.15,2013-04-13 20:12:00,
2013-04-13 13:18:00,46.7,40.5,30.16,NW,319,7.0,19.0,79,0.00,,,0.02,Wunderground v.1.15,2013-04-13 20:18:00,
2013-04-13 13:23:00,46.9,40.4,30.16,NW,321,7.0,19.0,78,0.00,,,0.02,Wunderground v.1.15,2013-04-13 20:23:00,
2013-04-13 13:29:00,47.0,40.5,30.15,NW,322,6.0,19.0,78,0.00,,,0.02,Wunderground v.1.15,2013-04-13 20:29:00,
2013-04-13 13:35:00,47.3,40.5,30.15,NW,311,6.0,19.0,77,0.00,,,0.02,Wunderground v.1.15,2013-04-13 20:35:00,
2013-04-13 13:41:00,47.1,40.3,30.15,NW,319,6.0,19.0,77,0.00,,,0.02,Wunderground v.1.15,2013-04-13 20:41:00,
2013-04-13 13:47:00,47.1,40.3,30.15,NW,326,7.0,19.0,77,0.00,,,0.02,Wunderground v.1.15,2013-04-13 20:47:00,
2013-04-13 13:53:00,47.4,40.2,30.15,NW,322,7.0,19.0,76,0.00,,,0.02,Wunderground v.1.15,2013-04-13 20:53:00,
2013-04-13 13:58:00,47.3,39.8,30.15,NW,311,7.0,19.0,75,0.00,,,0.02,Wunderground v.1.15,2013-04-13 20:58:00,
2013-04-13 14:04:00,47.6,40.4,30.15,NW,309,7.0,19.0,76,0.00,,,0.02,Wunderground v.1.15,2013-04-13 21:04:00,
2013-04-13 14:09:00,47.4,39.9,30.15,NW,311,7.0,19.0,75,0.00,,,0.02,Wunderground v.1.15,2013-04-13 21:09:00,
2013-04-13 14:15:00,47.5,40.3,30.15,NW,317,7.0,19.0,76,0.00,,,0.02,Wunderground v.1.15,2013-04-13 21:15:00,
2013-04-13 14:20:00,47.4,40.2,30.15,NW,323,7.0,19.0,76,0.00,,,0.02,Wunderground v.1.15,2013-04-13 21:20:00,
2013-04-13 14:26:00,47.1,39.9,30.16,NW,320,8.0,19.0,76,0.00,,,0.02,Wunderground v.1.15,2013-04-13 21:26:00,
2013-04-13 14:32:00,46.7,39.9,30.16,NW,325,8.0,19.0,77,0.00,,,0.02,Wunderground v.1.15,2013-04-13 21:32:00,
2013-04-13 14:37:00,46.7,40.5,30.16,NW,320,9.0,19.0,79,0.00,,,0.02,Wunderground v.1.15,2013-04-13 21:37:00,
2013-04-13 14:43:00,46.3,40.1,30.16,NW,310,11.0,19.0,79,0.00,,,0.02,Wunderground v.1.15,2013-04-13 21:43:00,
2013-04-13 14:48:00,46.4,40.9,30.16,NW,319,10.0,19.0,81,0.00,,,0.02,Wunderground v.1.15,2013-04-13 21:48:00,
2013-04-13 14:53:00,46.2,40.4,30.16,NNW,331,9.0,19.0,80,0.00,,,0.02,Wunderground v.1.15,2013-04-13 21:53:00,
2013-04-13 14:59:00,46.0,40.2,30.17,NW,321,7.0,19.0,80,0.00,,,0.02,Wunderground v.1.15,2013-04-13 21:59:00,
2013-04-13 15:05:00,45.4,39.9,30.16,North,5,8.0,19.0,81,0.00,,,0.02,Wunderground v.1.15,2013-04-13 22:05:00,
2013-04-13 15:10:00,45.6,40.1,30.16,North,355,8.0,19.0,81,0.00,,,0.02,Wunderground v.1.15,2013-04-13 22:10:00,
2013-04-13 15:16:00,45.7,39.9,30.16,North,350,6.0,19.0,80,0.00,,,0.02,Wunderground v.1.15,2013-04-13 22:16:00,
2013-04-13 15:23:00,46.0,40.2,30.16,NNW,336,5.0,19.0,80,0.00,,,0.02,Wunderground v.1.15,2013-04-13 22:23:00,
2013-04-13 15:28:00,46.2,40.0,30.16,NNW,343,5.0,19.0,79,0.00,,,0.02,Wunderground v.1.15,2013-04-13 22:28:00,
2013-04-13 15:33:00,47.0,40.8,30.16,NNW,329,5.0,19.0,79,0.00,,,0.02,Wunderground v.1.15,2013-04-13 22:33:00,
2013-04-13 15:38:00,47.5,41.0,30.16,NNW,327,5.0,19.0,78,0.00,,,0.02,Wunderground v.1.15,2013-04-13 22:38:00,
2013-04-13 15:43:00,47.3,40.5,30.16,NNW,339,4.0,19.0,77,0.00,,,0.02,Wunderground v.1.15,2013-04-13 22:43:00,
2013-04-13 15:49:00,47.3,40.5,30.16,NNW,346,4.0,19.0,77,0.00,,,0.02,Wunderground v.1.15,2013-04-13 22:49:00,
2013-04-13 15:55:00,47.1,40.3,30.16,NNW,343,5.0,19.0,77,0.00,,,0.02,Wunderground v.1.15,2013-04-13 22:55:00,
2013-04-13 16:02:00,47.0,39.8,30.16,NNW,348,5.0,19.0,76,0.00,,,0.02,Wunderground v.1.15,2013-04-13 23:02:00,
2013-04-13 16:08:00,46.6,39.1,30.15,North,351,5.0,19.0,75,0.00,,,0.02,Wunderground v.1.15,2013-04-13 23:08:00,
2013-04-13 16:13:00,46.5,39.3,30.15,NNW,348,5.0,19.0,76,0.00,,,0.02,Wunderground v.1.15,2013-04-13 23:13:00,
2013-04-13 16:18:00,46.7,39.5,30.15,North,350,5.0,19.0,76,0.00,,,0.02,Wunderground v.1.15,2013-04-13 23:18:00,
2013-04-13 16:23:00,46.5,39.3,30.15,North,350,6.0,19.0,76,0.00,,,0.02,Wunderground v.1.15,2013-04-13 23:23:00,
2013-04-13 16:29:00,46.8,40.0,30.15,NNW,343,6.0,6.0,77,0.00,,,0.02,Wunderground v.1.15,2013-04-13 23:29:00,
2013-04-13 16:34:00,46.7,39.2,30.15,NNW,346,6.0,19.0,75,0.00,,,0.02,Wunderground v.1.15,2013-04-13 23:34:00,
2013-04-13 16:40:00,46.6,39.8,30.15,NNW,336,6.0,19.0,77,0.00,,,0.02,Wunderground v.1.15,2013-04-13 23:40:00,
2013-04-13 16:46:00,47.0,39.8,30.15,North,350,6.0,19.0,76,0.00,,,0.02,Wunderground v.1.15,2013-04-13 23:46:00,
2013-04-13 16:52:00,47.5,40.6,30.15,NW,319,5.0,19.0,77,0.00,,,0.02,Wunderground v.1.15,2013-04-13 23:52:00,
2013-04-13 16:57:00,47.7,40.5,30.14,North,355,5.0,19.0,76,0.00,,,0.02,Wunderground v.1.15,2013-04-13 23:57:00,
2013-04-13 17:03:00,47.0,39.1,30.14,NNW,348,6.0,19.0,74,0.00,,,0.02,Wunderground v.1.15,2013-04-14 00:03:00,
2013-04-13 17:08:00,47.1,39.2,30.14,North,355,7.0,19.0,74,0.00,,,0.02,Wunderground v.1.15,2013-04-14 00:08:00,
2013-04-13 17:13:00,46.8,38.9,30.14,NNW,338,6.0,19.0,74,0.00,,,0.02,Wunderground v.1.15,2013-04-14 00:13:00,
2013-04-13 17:19:00,46.8,39.3,30.15,North,355,6.0,19.0,75,0.00,,,0.02,Wunderground v.1.15,2013-04-14 00:19:00,
2013-04-13 17:25:00,46.4,39.2,30.15,NNW,344,7.0,19.0,76,0.00,,,0.02,Wunderground v.1.15,2013-04-14 00:25:00,
2013-04-13 17:30:00,46.1,39.0,30.15,North,350,7.0,19.0,76,0.00,,,0.02,Wunderground v.1.15,2013-04-14 00:30:00,
2013-04-13 17:35:00,46.1,39.0,30.15,NNW,345,7.0,19.0,76,0.00,,,0.02,Wunderground v.1.15,2013-04-14 00:35:00,
2013-04-13 17:41:00,46.5,39.0,30.15,NNW,342,8.0,19.0,75,0.00,,,0.02,Wunderground v.1.15,2013-04-14 00:41:00,
2013-04-13 17:48:00,46.7,38.9,30.15,North,5,8.0,19.0,74,0.00,,,0.02,Wunderground v.1.15,2013-04-14 00:48:00,
2013-04-13 17:53:00,46.7,38.5,30.15,NNW,348,8.0,19.0,73,0.00,,,0.02,Wunderground v.1.15,2013-04-14 00:53:00,
2013-04-13 17:58:00,46.6,38.4,30.14,North,360,8.0,19.0,73,0.00,,,0.02,Wunderground v.1.15,2013-04-14 00:58:00,
2013-04-13 18:04:00,46.6,38.1,30.14,North,355,8.0,19.0,72,0.00,,,0.02,Wunderground v.1.15,2013-04-14 01:04:00,
2013-04-13 18:09:00,46.7,38.1,30.14,North,350,7.0,19.0,72,0.00,,,0.02,Wunderground v.1.15,2013-04-14 01:09:00,
2013-04-13 18:14:00,46.7,38.1,30.14,NNW,329,7.0,19.0,72,0.00,,,0.02,Wunderground v.1.15,2013-04-14 01:14:00,
2013-04-13 18:20:00,46.8,38.6,30.14,NNW,345,7.0,19.0,73,0.00,,,0.02,Wunderground v.1.15,2013-04-14 01:20:00,
2013-04-13 18:25:00,46.5,38.0,30.14,North,351,8.0,19.0,72,0.00,,,0.02,Wunderground v.1.15,2013-04-14 01:25:00,
2013-04-13 18:31:00,46.6,37.7,30.14,NNW,336,8.0,19.0,71,0.00,,,0.02,Wunderground v.1.15,2013-04-14 01:31:00,
2013-04-13 18:37:00,46.5,37.6,30.15,NNW,333,7.0,19.0,71,0.00,,,0.02,Wunderground v.1.15,2013-04-14 01:37:00,
2013-04-13 18:42:00,46.4,37.1,30.14,NNW,347,8.0,19.0,70,0.00,,,0.02,Wunderground v.1.15,2013-04-14 01:42:00,
2013-04-13 18:47:00,46.3,37.4,30.14,NNW,332,7.0,19.0,71,0.00,,,0.02,Wunderground v.1.15,2013-04-14 01:47:00,
2013-04-13 18:54:00,46.2,37.3,30.14,North,355,7.0,19.0,71,0.00,,,0.02,Wunderground v.1.15,2013-04-14 01:54:00,
2013-04-13 18:59:00,46.1,36.9,30.14,NNW,329,7.0,19.0,70,0.00,,,0.02,Wunderground v.1.15,2013-04-14 01:59:00,
2013-04-13 19:04:00,46.0,36.4,30.14,NNW,336,8.0,19.0,69,0.00,,,0.02,Wunderground v.1.15,2013-04-14 02:04:00,
2013-04-13 19:10:00,46.0,36.8,30.14,NNW,346,8.0,19.0,70,0.00,,,0.02,Wunderground v.1.15,2013-04-14 02:10:00,
2013-04-13 19:16:00,45.9,37.0,30.14,North,351,6.0,19.0,71,0.00,,,0.02,Wunderground v.1.15,2013-04-14 02:16:00,
2013-04-13 19:23:00,45.6,37.1,30.14,NNW,344,7.0,19.0,72,0.00,,,0.02,Wunderground v.1.15,2013-04-14 02:23:00,
2013-04-13 19:28:00,45.3,36.8,30.14,NNW,343,7.0,19.0,72,0.00,,,0.02,Wunderground v.1.15,2013-04-14 02:28:00,
2013-04-13 19:33:00,45.2,36.4,30.15,North,350,7.0,19.0,71,0.00,,,0.02,Wunderground v.1.15,2013-04-14 02:33:00,
2013-04-13 19:39:00,45.2,37.1,30.15,NNW,329,6.0,19.0,73,0.00,,,0.02,Wunderground v.1.15,2013-04-14 02:39:00,
2013-04-13 19:44:00,45.0,36.5,30.15,North,355,6.0,19.0,72,0.00,,,0.02,Wunderground v.1.15,2013-04-14 02:44:00,
2013-04-13 19:49:00,45.1,37.0,30.15,North,350,6.0,19.0,73,0.00,,,0.02,Wunderground v.1.15,2013-04-14 02:49:00,
2013-04-13 19:54:00,45.1,37.0,30.15,NNW,348,7.0,19.0,73,0.00,,,0.02,Wunderground v.1.15,2013-04-14 02:54:00,
2013-04-13 19:59:00,45.2,38.1,30.15,NNW,339,7.0,7.0,76,0.00,,,0.02,Wunderground v.1.15,2013-04-14 02:59:00,
2013-04-13 20:05:00,45.1,38.3,30.15,North,355,7.0,19.0,77,0.00,,,0.02,Wunderground v.1.15,2013-04-14 03:05:00,
2013-04-13 20:11:00,45.1,38.6,30.15,North,355,8.0,19.0,78,0.00,,,0.02,Wunderground v.1.15,2013-04-14 03:11:00,
2013-04-13 20:16:00,45.0,38.6,30.15,NNW,342,8.0,19.0,78,0.00,,,0.02,Wunderground v.1.15,2013-04-14 03:16:00,
2013-04-13 20:22:00,44.9,38.5,30.15,North,355,9.0,19.0,78,0.00,,,0.02,Wunderground v.1.15,2013-04-14 03:22:00,
2013-04-13 20:28:00,44.8,38.4,30.15,North,355,9.0,19.0,78,0.00,,,0.02,Wunderground v.1.15,2013-04-14 03:28:00,
2013-04-13 20:33:00,44.7,38.6,30.15,North,355,8.0,19.0,79,0.00,,,0.02,Wunderground v.1.15,2013-04-14 03:33:00,
2013-04-13 20:38:00,44.6,38.2,30.15,North,355,8.0,19.0,78,0.00,,,0.02,Wunderground v.1.15,2013-04-14 03:38:00,
2013-04-13 20:43:00,44.5,38.1,30.15,North,355,8.0,19.0,78,0.00,,,0.02,Wunderground v.1.15,2013-04-14 03:43:00,
2013-04-13 20:49:00,44.6,38.2,30.15,North,355,8.0,19.0,78,0.00,,,0.02,Wunderground v.1.15,2013-04-14 03:49:00,
2013-04-13 20:55:00,44.6,38.2,30.15,North,355,8.0,19.0,78,0.00,,,0.02,Wunderground v.1.15,2013-04-14 03:55:00,
2013-04-13 21:00:00,44.6,38.2,30.16,North,355,7.0,19.0,78,0.00,,,0.02,Wunderground v.1.15,2013-04-14 04:00:00,
2013-04-13 21:03:00,44.6,38.2,30.16,North,350,7.0,19.0,78,0.00,,,0.02,Wunderground v.1.15,2013-04-14 04:03:00,
2013-04-13 21:07:00,44.6,37.8,30.16,NNW,346,7.0,19.0,77,0.00,,,0.02,Wunderground v.1.15,2013-04-14 04:07:00,
2013-04-13 21:13:00,44.6,38.2,30.16,NNW,342,7.0,19.0,78,0.00,,,0.02,Wunderground v.1.15,2013-04-14 04:13:00,
2013-04-13 21:18:00,44.6,38.2,30.16,North,355,7.0,19.0,78,0.00,,,0.02,Wunderground v.1.15,2013-04-14 04:18:00,
2013-04-13 21:24:00,44.5,38.1,30.16,North,355,7.0,19.0,78,0.00,,,0.02,Wunderground v.1.15,2013-04-14 04:24:00,
2013-04-13 21:30:00,44.5,37.7,30.16,NNW,348,7.0,19.0,77,0.00,,,0.02,Wunderground v.1.15,2013-04-14 04:30:00,
2013-04-13 21:37:00,44.5,38.1,30.16,NNW,348,6.0,19.0,78,0.00,,,0.02,Wunderground v.1.15,2013-04-14 04:37:00,
2013-04-13 21:43:00,44.5,38.1,30.16,North,351,6.0,19.0,78,0.00,,,0.02,Wunderground v.1.15,2013-04-14 04:43:00,
2013-04-13 21:48:00,44.5,38.1,30.16,NNW,342,6.0,19.0,78,0.00,,,0.02,Wunderground v.1.15,2013-04-14 04:48:00,
2013-04-13 21:53:00,44.4,38.0,30.16,North,355,6.0,19.0,78,0.00,,,0.02,Wunderground v.1.15,2013-04-14 04:53:00,
2013-04-13 21:59:00,44.5,38.4,30.16,North,355,6.0,6.0,79,0.00,,,0.02,Wunderground v.1.15,2013-04-14 04:59:00,
2013-04-13 22:04:00,44.4,38.0,30.16,North,355,7.0,19.0,78,0.00,,,0.02,Wunderground v.1.15,2013-04-14 05:04:00,
2013-04-13 22:09:00,44.2,37.8,30.16,North,9,5.0,5.0,78,0.00,,,0.02,Wunderground v.1.15,2013-04-14 05:09:00,
2013-04-13 22:15:00,43.5,37.4,30.15,North,9,2.0,19.0,79,0.00,,,0.02,Wunderground v.1.15,2013-04-14 05:15:00,
2013-04-13 22:21:00,43.1,37.0,30.15,North,9,2.0,19.0,79,0.00,,,0.02,Wunderground v.1.15,2013-04-14 05:21:00,
2013-04-13 22:26:00,42.9,36.8,30.15,North,9,1.0,19.0,79,0.00,,,0.02,Wunderground v.1.15,2013-04-14 05:26:00,
2013-04-13 22:32:00,42.5,36.4,30.15,North,9,0.0,19.0,79,0.00,,,0.02,Wunderground v.1.15,2013-04-14 05:32:00,
2013-04-13 22:38:00,42.0,36.0,30.15,North,9,0.0,19.0,79,0.00,,,0.02,Wunderground v.1.15,2013-04-14 05:38:00,
2013-04-13 22:43:00,41.6,35.9,30.15,North,9,0.0,19.0,80,0.00,,,0.02,Wunderground v.1.15,2013-04-14 05:43:00,
2013-04-13 22:49:00,41.2,35.5,30.15,North,9,0.0,19.0,80,0.00,,,0.02,Wunderground v.1.15,2013-04-14 05:49:00,
2013-04-13 22:54:00,40.8,35.1,30.15,North,9,0.0,19.0,80,0.00,,,0.02,Wunderground v.1.15,2013-04-14 05:54:00,
2013-04-13 23:01:00,40.6,35.2,30.15,North,9,0.0,19.0,81,0.00,,,0.02,Wunderground v.1.15,2013-04-14 06:01:00,
2013-04-13 23:06:00,40.4,35.0,30.15,North,9,1.0,19.0,81,0.00,,,0.02,Wunderground v.1.15,2013-04-14 06:06:00,
2013-04-13 23:11:00,40.1,34.7,30.15,North,9,0.0,19.0,81,0.00,,,0.02,Wunderground v.1.15,2013-04-14 06:11:00,
2013-04-13 23:16:00,39.8,34.4,30.15,North,9,0.0,19.0,81,0.00,,,0.02,Wunderground v.1.15,2013-04-14 06:16:00,
2013-04-13 23:22:00,39.4,34.1,30.15,North,9,0.0,19.0,81,0.00,,,0.02,Wunderground v.1.15,2013-04-14 06:22:00,
2013-04-13 23:28:00,39.2,33.9,30.15,North,9,0.0,19.0,81,0.00,,,0.02,Wunderground v.1.15,2013-04-14 06:28:00,
2013-04-13 23:33:00,39.0,34.0,30.15,North,9,0.0,19.0,82,0.00,,,0.02,Wunderground v.1.15,2013-04-14 06:33:00,
2013-04-13 23:38:00,38.9,33.9,30.15,North,9,0.0,19.0,82,0.00,,,0.02,Wunderground v.1.15,2013-04-14 06:38:00,
2013-04-13 23:44:00,38.8,33.8,30.15,North,9,0.0,19.0,82,0.00,,,0.02,Wunderground v.1.15,2013-04-14 06:44:00,
2013-04-13 23:50:00,38.7,34.0,30.15,North,9,0.0,19.0,83,0.00,,,0.02,Wunderground v.1.15,2013-04-14 06:50:00,
2013-04-13 23:55:00,38.7,34.0,30.15,North,9,0.0,19.0,83,0.00,,,0.02,Wunderground v.1.15,2013-04-14 06:55:00,